sensor_id;sensor_type;location;lat;lon;timestamp;P1;durP1;ratioP1;P2;durP2;ratioP2
50429;SDS011;36359;41.556;-8.418;2023-03-12T00:02:28;21.00;;;11.05;;
50429;SDS011;36359;41.556;-8.418;2023-03-12T00:05:52;25.98;;;11.73;;
50429;SDS011;36359;41.556;-8.418;2023-03-12T00:09:16;19.63;;;11.48;;
50429;SDS011;36359;41.556;-8.418;2023-03-12T00:12:40;22.42;;;12.80;;
50429;SDS011;36359;41.556;-8.418;2023-03-12T00:16:09;25.08;;;14.18;;
50429;SDS011;36359;41.556;-8.418;2023-03-12T00:19:34;27.10;;;13.25;;
50429;SDS011;36359;41.556;-8.418;2023-03-12T00:22:58;23.63;;;12.40;;
50429;SDS011;36359;41.556;-8.418;2023-03-12T00:26:23;22.05;;;11.07;;
50429;SDS011;36359;41.556;-8.418;2023-03-12T00:29:48;18.38;;;11.48;;
50429;SDS011;36359;41.556;-8.418;2023-03-12T00:33:12;20.38;;;10.40;;
50429;SDS011;36359;41.556;-8.418;2023-03-12T00:36:36;26.08;;;10.48;;
50429;SDS011;36359;41.556;-8.418;2023-03-12T00:40:01;20.20;;;9.68;;
50429;SDS011;36359;41.556;-8.418;2023-03-12T00:43:25;21.20;;;9.55;;
50429;SDS011;36359;41.556;-8.418;2023-03-12T00:46:50;17.63;;;9.45;;
50429;SDS011;36359;41.556;-8.418;2023-03-12T00:50:14;21.52;;;10.45;;
50429;SDS011;36359;41.556;-8.418;2023-03-12T00:53:38;20.67;;;10.88;;
50429;SDS011;36359;41.556;-8.418;2023-03-12T00:57:03;24.25;;;12.32;;
50429;SDS011;36359;41.556;-8.418;2023-03-12T01:00:27;23.08;;;12.63;;
50429;SDS011;36359;41.556;-8.418;2023-03-12T01:03:52;29.42;;;13.85;;
50429;SDS011;36359;41.556;-8.418;2023-03-12T01:07:16;19.48;;;10.80;;
50429;SDS011;36359;41.556;-8.418;2023-03-12T01:10:41;25.63;;;12.23;;
50429;SDS011;36359;41.556;-8.418;2023-03-12T01:14:06;23.95;;;11.98;;
50429;SDS011;36359;41.556;-8.418;2023-03-12T01:17:31;26.20;;;11.57;;
50429;SDS011;36359;41.556;-8.418;2023-03-12T01:20:55;24.83;;;11.40;;
50429;SDS011;36359;41.556;-8.418;2023-03-12T01:24:19;21.48;;;10.35;;
50429;SDS011;36359;41.556;-8.418;2023-03-12T01:27:43;24.10;;;13.50;;
50429;SDS011;36359;41.556;-8.418;2023-03-12T01:31:09;26.05;;;13.02;;
50429;SDS011;36359;41.556;-8.418;2023-03-12T01:34:33;29.77;;;13.68;;
50429;SDS011;36359;41.556;-8.418;2023-03-12T01:38:01;26.00;;;12.15;;
50429;SDS011;36359;41.556;-8.418;2023-03-12T01:41:26;25.92;;;11.60;;
50429;SDS011;36359;41.556;-8.418;2023-03-12T01:44:55;21.90;;;11.10;;
50429;SDS011;36359;41.556;-8.418;2023-03-12T01:48:39;21.25;;;11.02;;
50429;SDS011;36359;41.556;-8.418;2023-03-12T01:52:08;26.67;;;11.25;;
50429;SDS011;36359;41.556;-8.418;2023-03-12T01:55:33;25.52;;;11.93;;
50429;SDS011;36359;41.556;-8.418;2023-03-12T01:59:02;23.13;;;12.65;;
50429;SDS011;36359;41.556;-8.418;2023-03-12T02:02:39;22.73;;;13.38;;
50429;SDS011;36359;41.556;-8.418;2023-03-12T02:06:07;23.67;;;12.48;;
50429;SDS011;36359;41.556;-8.418;2023-03-12T02:09:37;17.42;;;11.07;;
50429;SDS011;36359;41.556;-8.418;2023-03-12T02:13:02;20.42;;;11.13;;
50429;SDS011;36359;41.556;-8.418;2023-03-12T02:16:27;22.30;;;12.23;;
50429;SDS011;36359;41.556;-8.418;2023-03-12T02:19:58;22.35;;;11.32;;
50429;SDS011;36359;41.556;-8.418;2023-03-12T02:27:32;20.92;;;10.10;;
50429;SDS011;36359;41.556;-8.418;2023-03-12T02:30:59;20.27;;;10.50;;
50429;SDS011;36359;41.556;-8.418;2023-03-12T02:34:27;19.67;;;10.55;;
50429;SDS011;36359;41.556;-8.418;2023-03-12T02:37:52;20.13;;;9.35;;
50429;SDS011;36359;41.556;-8.418;2023-03-12T02:41:22;19.10;;;11.25;;
50429;SDS011;36359;41.556;-8.418;2023-03-12T02:44:48;19.38;;;10.20;;
50429;SDS011;36359;41.556;-8.418;2023-03-12T02:48:13;19.38;;;9.10;;
50429;SDS011;36359;41.556;-8.418;2023-03-12T02:51:38;20.55;;;9.93;;
50429;SDS011;36359;41.556;-8.418;2023-03-12T02:55:03;20.33;;;9.65;;
50429;SDS011;36359;41.556;-8.418;2023-03-12T02:58:28;17.45;;;9.45;;
50429;SDS011;36359;41.556;-8.418;2023-03-12T03:01:56;19.58;;;9.82;;
50429;SDS011;36359;41.556;-8.418;2023-03-12T03:05:20;17.63;;;9.27;;
50429;SDS011;36359;41.556;-8.418;2023-03-12T03:08:45;21.88;;;9.38;;
50429;SDS011;36359;41.556;-8.418;2023-03-12T03:12:09;20.75;;;9.45;;
50429;SDS011;36359;41.556;-8.418;2023-03-12T03:15:33;16.15;;;9.02;;
50429;SDS011;36359;41.556;-8.418;2023-03-12T03:18:58;19.85;;;9.00;;
50429;SDS011;36359;41.556;-8.418;2023-03-12T03:22:22;18.20;;;8.98;;
50429;SDS011;36359;41.556;-8.418;2023-03-12T03:25:47;16.65;;;8.90;;
50429;SDS011;36359;41.556;-8.418;2023-03-12T03:29:11;15.88;;;9.38;;
50429;SDS011;36359;41.556;-8.418;2023-03-12T03:32:41;18.15;;;8.43;;
50429;SDS011;36359;41.556;-8.418;2023-03-12T03:36:07;15.90;;;9.75;;
50429;SDS011;36359;41.556;-8.418;2023-03-12T03:39:35;18.35;;;9.40;;
50429;SDS011;36359;41.556;-8.418;2023-03-12T03:43:02;16.00;;;9.98;;
50429;SDS011;36359;41.556;-8.418;2023-03-12T03:46:29;20.30;;;10.15;;
50429;SDS011;36359;41.556;-8.418;2023-03-12T03:49:53;18.38;;;10.38;;
50429;SDS011;36359;41.556;-8.418;2023-03-12T03:53:18;24.95;;;10.48;;
50429;SDS011;36359;41.556;-8.418;2023-03-12T03:56:44;15.35;;;7.38;;
50429;SDS011;36359;41.556;-8.418;2023-03-12T04:00:09;17.25;;;10.40;;
50429;SDS011;36359;41.556;-8.418;2023-03-12T04:03:34;21.35;;;11.18;;
50429;SDS011;36359;41.556;-8.418;2023-03-12T04:06:58;20.10;;;11.30;;
50429;SDS011;36359;41.556;-8.418;2023-03-12T04:10:29;19.67;;;10.57;;
50429;SDS011;36359;41.556;-8.418;2023-03-12T04:13:55;24.02;;;10.48;;
50429;SDS011;36359;41.556;-8.418;2023-03-12T04:17:20;23.15;;;11.10;;
50429;SDS011;36359;41.556;-8.418;2023-03-12T04:20:45;19.55;;;9.85;;
50429;SDS011;36359;41.556;-8.418;2023-03-12T04:24:15;19.65;;;10.40;;
50429;SDS011;36359;41.556;-8.418;2023-03-12T04:27:40;17.27;;;9.65;;
50429;SDS011;36359;41.556;-8.418;2023-03-12T04:31:06;17.23;;;9.88;;
50429;SDS011;36359;41.556;-8.418;2023-03-12T04:34:30;14.57;;;8.38;;
50429;SDS011;36359;41.556;-8.418;2023-03-12T04:37:56;19.40;;;10.30;;
50429;SDS011;36359;41.556;-8.418;2023-03-12T04:41:25;16.65;;;8.82;;
50429;SDS011;36359;41.556;-8.418;2023-03-12T04:44:50;16.17;;;9.40;;
50429;SDS011;36359;41.556;-8.418;2023-03-12T04:48:14;19.38;;;8.80;;
50429;SDS011;36359;41.556;-8.418;2023-03-12T04:51:40;15.85;;;8.77;;
50429;SDS011;36359;41.556;-8.418;2023-03-12T04:55:05;15.50;;;8.13;;
50429;SDS011;36359;41.556;-8.418;2023-03-12T04:58:31;16.83;;;8.48;;
50429;SDS011;36359;41.556;-8.418;2023-03-12T05:01:55;18.38;;;8.60;;
50429;SDS011;36359;41.556;-8.418;2023-03-12T05:05:20;18.70;;;8.40;;
50429;SDS011;36359;41.556;-8.418;2023-03-12T05:08:45;16.33;;;8.50;;
50429;SDS011;36359;41.556;-8.418;2023-03-12T05:12:10;15.27;;;8.40;;
50429;SDS011;36359;41.556;-8.418;2023-03-12T05:15:44;14.68;;;7.80;;
50429;SDS011;36359;41.556;-8.418;2023-03-12T05:19:08;16.70;;;8.52;;
50429;SDS011;36359;41.556;-8.418;2023-03-12T05:22:34;15.48;;;8.38;;
50429;SDS011;36359;41.556;-8.418;2023-03-12T05:25:58;12.98;;;7.88;;
50429;SDS011;36359;41.556;-8.418;2023-03-12T05:29:23;13.68;;;8.13;;
50429;SDS011;36359;41.556;-8.418;2023-03-12T05:32:50;15.88;;;7.50;;
50429;SDS011;36359;41.556;-8.418;2023-03-12T05:36:16;18.25;;;7.72;;
50429;SDS011;36359;41.556;-8.418;2023-03-12T05:39:40;16.42;;;8.32;;
50429;SDS011;36359;41.556;-8.418;2023-03-12T05:43:04;19.52;;;9.80;;
50429;SDS011;36359;41.556;-8.418;2023-03-12T05:46:29;18.00;;;9.07;;
50429;SDS011;36359;41.556;-8.418;2023-03-12T05:49:53;17.98;;;9.50;;
50429;SDS011;36359;41.556;-8.418;2023-03-12T05:53:18;20.70;;;8.80;;
50429;SDS011;36359;41.556;-8.418;2023-03-12T05:56:45;17.70;;;8.40;;
50429;SDS011;36359;41.556;-8.418;2023-03-12T06:00:11;12.60;;;7.95;;
50429;SDS011;36359;41.556;-8.418;2023-03-12T06:03:37;17.08;;;8.43;;
50429;SDS011;36359;41.556;-8.418;2023-03-12T06:07:02;14.32;;;7.55;;
50429;SDS011;36359;41.556;-8.418;2023-03-12T06:10:26;17.38;;;7.90;;
50429;SDS011;36359;41.556;-8.418;2023-03-12T06:13:51;16.02;;;7.65;;
50429;SDS011;36359;41.556;-8.418;2023-03-12T06:17:15;12.73;;;8.02;;
50429;SDS011;36359;41.556;-8.418;2023-03-12T06:20:40;14.43;;;7.28;;
50429;SDS011;36359;41.556;-8.418;2023-03-12T06:24:07;15.40;;;7.20;;
50429;SDS011;36359;41.556;-8.418;2023-03-12T06:27:32;16.73;;;7.93;;
50429;SDS011;36359;41.556;-8.418;2023-03-12T06:30:57;13.57;;;6.80;;
50429;SDS011;36359;41.556;-8.418;2023-03-12T06:34:21;15.15;;;7.85;;
50429;SDS011;36359;41.556;-8.418;2023-03-12T06:37:45;16.52;;;7.22;;
50429;SDS011;36359;41.556;-8.418;2023-03-12T06:41:11;14.73;;;7.82;;
50429;SDS011;36359;41.556;-8.418;2023-03-12T06:44:38;11.35;;;7.07;;
50429;SDS011;36359;41.556;-8.418;2023-03-12T06:48:02;13.07;;;6.45;;
50429;SDS011;36359;41.556;-8.418;2023-03-12T06:51:27;7.43;;;4.25;;
50429;SDS011;36359;41.556;-8.418;2023-03-12T06:54:51;7.78;;;3.67;;
50429;SDS011;36359;41.556;-8.418;2023-03-12T06:58:16;9.23;;;4.00;;
50429;SDS011;36359;41.556;-8.418;2023-03-12T07:01:40;11.88;;;3.97;;
50429;SDS011;36359;41.556;-8.418;2023-03-12T07:05:04;7.95;;;3.63;;
50429;SDS011;36359;41.556;-8.418;2023-03-12T07:08:29;10.57;;;4.05;;
50429;SDS011;36359;41.556;-8.418;2023-03-12T07:11:53;10.23;;;3.95;;
50429;SDS011;36359;41.556;-8.418;2023-03-12T07:15:19;12.15;;;4.30;;
50429;SDS011;36359;41.556;-8.418;2023-03-12T07:18:43;10.55;;;4.35;;
50429;SDS011;36359;41.556;-8.418;2023-03-12T07:22:07;11.88;;;4.55;;
50429;SDS011;36359;41.556;-8.418;2023-03-12T07:25:38;12.05;;;4.75;;
50429;SDS011;36359;41.556;-8.418;2023-03-12T07:29:02;8.57;;;3.42;;
50429;SDS011;36359;41.556;-8.418;2023-03-12T07:32:27;10.93;;;3.88;;
50429;SDS011;36359;41.556;-8.418;2023-03-12T07:35:51;9.02;;;3.97;;
50429;SDS011;36359;41.556;-8.418;2023-03-12T07:39:15;8.05;;;3.83;;
50429;SDS011;36359;41.556;-8.418;2023-03-12T07:42:39;10.18;;;4.45;;
50429;SDS011;36359;41.556;-8.418;2023-03-12T07:46:03;11.25;;;3.85;;
50429;SDS011;36359;41.556;-8.418;2023-03-12T07:49:27;10.88;;;3.53;;
50429;SDS011;36359;41.556;-8.418;2023-03-12T07:52:52;10.32;;;3.67;;
50429;SDS011;36359;41.556;-8.418;2023-03-12T07:56:16;11.07;;;4.50;;
50429;SDS011;36359;41.556;-8.418;2023-03-12T07:59:41;8.18;;;3.90;;
50429;SDS011;36359;41.556;-8.418;2023-03-12T08:03:05;9.63;;;3.90;;
50429;SDS011;36359;41.556;-8.418;2023-03-12T08:06:29;8.45;;;3.67;;
50429;SDS011;36359;41.556;-8.418;2023-03-12T08:10:00;10.85;;;4.57;;
50429;SDS011;36359;41.556;-8.418;2023-03-12T08:13:24;11.35;;;5.03;;
50429;SDS011;36359;41.556;-8.418;2023-03-12T08:16:49;11.65;;;4.82;;
50429;SDS011;36359;41.556;-8.418;2023-03-12T08:20:13;11.65;;;5.32;;
50429;SDS011;36359;41.556;-8.418;2023-03-12T08:23:39;9.43;;;6.18;;
50429;SDS011;36359;41.556;-8.418;2023-03-12T08:27:03;12.23;;;6.30;;
50429;SDS011;36359;41.556;-8.418;2023-03-12T08:30:28;10.00;;;4.53;;
50429;SDS011;36359;41.556;-8.418;2023-03-12T08:33:53;12.25;;;4.80;;
50429;SDS011;36359;41.556;-8.418;2023-03-12T08:37:17;11.45;;;4.50;;
50429;SDS011;36359;41.556;-8.418;2023-03-12T08:40:41;12.90;;;4.88;;
50429;SDS011;36359;41.556;-8.418;2023-03-12T08:44:06;9.68;;;4.30;;
50429;SDS011;36359;41.556;-8.418;2023-03-12T08:47:30;8.02;;;3.70;;
50429;SDS011;36359;41.556;-8.418;2023-03-12T08:50:55;12.98;;;4.55;;
50429;SDS011;36359;41.556;-8.418;2023-03-12T08:54:20;7.20;;;3.72;;
50429;SDS011;36359;41.556;-8.418;2023-03-12T08:57:44;9.93;;;4.15;;
50429;SDS011;36359;41.556;-8.418;2023-03-12T09:01:09;14.38;;;6.78;;
50429;SDS011;36359;41.556;-8.418;2023-03-12T09:04:35;12.40;;;7.03;;
50429;SDS011;36359;41.556;-8.418;2023-03-12T09:07:59;12.25;;;6.05;;
50429;SDS011;36359;41.556;-8.418;2023-03-12T09:11:30;7.80;;;4.05;;
50429;SDS011;36359;41.556;-8.418;2023-03-12T09:14:54;10.52;;;4.43;;
50429;SDS011;36359;41.556;-8.418;2023-03-12T09:18:22;11.23;;;4.63;;
50429;SDS011;36359;41.556;-8.418;2023-03-12T09:21:46;11.70;;;4.75;;
50429;SDS011;36359;41.556;-8.418;2023-03-12T09:25:11;15.45;;;5.60;;
50429;SDS011;36359;41.556;-8.418;2023-03-12T09:28:36;10.30;;;4.95;;
50429;SDS011;36359;41.556;-8.418;2023-03-12T09:32:00;8.05;;;3.92;;
50429;SDS011;36359;41.556;-8.418;2023-03-12T09:35:25;12.88;;;4.60;;
50429;SDS011;36359;41.556;-8.418;2023-03-12T09:38:49;8.13;;;4.35;;
50429;SDS011;36359;41.556;-8.418;2023-03-12T09:42:18;8.88;;;4.05;;
50429;SDS011;36359;41.556;-8.418;2023-03-12T09:45:44;8.63;;;2.83;;
50429;SDS011;36359;41.556;-8.418;2023-03-12T09:50:00;8.13;;;3.20;;
50429;SDS011;36359;41.556;-8.418;2023-03-12T09:57:09;6.80;;;3.67;;
50429;SDS011;36359;41.556;-8.418;2023-03-12T10:00:38;10.38;;;4.18;;
50429;SDS011;36359;41.556;-8.418;2023-03-12T10:08:11;5.43;;;2.53;;
50429;SDS011;36359;41.556;-8.418;2023-03-12T10:12:01;6.75;;;2.67;;
50429;SDS011;36359;41.556;-8.418;2023-03-12T10:19:26;5.95;;;2.65;;
50429;SDS011;36359;41.556;-8.418;2023-03-12T10:26:56;9.90;;;3.80;;
50429;SDS011;36359;41.556;-8.418;2023-03-12T10:30:28;7.15;;;4.00;;
50429;SDS011;36359;41.556;-8.418;2023-03-12T10:37:55;13.77;;;4.85;;
50429;SDS011;36359;41.556;-8.418;2023-03-12T10:41:21;12.05;;;4.10;;
50429;SDS011;36359;41.556;-8.418;2023-03-12T10:44:49;6.55;;;2.85;;
50429;SDS011;36359;41.556;-8.418;2023-03-12T10:48:41;7.05;;;2.55;;
50429;SDS011;36359;41.556;-8.418;2023-03-12T10:52:16;8.35;;;2.78;;
50429;SDS011;36359;41.556;-8.418;2023-03-12T10:59:31;5.18;;;2.35;;
50429;SDS011;36359;41.556;-8.418;2023-03-12T11:03:01;6.25;;;2.55;;
50429;SDS011;36359;41.556;-8.418;2023-03-12T11:14:07;5.20;;;2.33;;
50429;SDS011;36359;41.556;-8.418;2023-03-12T11:18:23;4.68;;;2.15;;
50429;SDS011;36359;41.556;-8.418;2023-03-12T11:22:06;6.45;;;2.70;;
50429;SDS011;36359;41.556;-8.418;2023-03-12T11:25:41;4.75;;;2.10;;
50429;SDS011;36359;41.556;-8.418;2023-03-12T11:29:29;5.47;;;2.05;;
50429;SDS011;36359;41.556;-8.418;2023-03-12T11:32:58;5.65;;;2.20;;
50429;SDS011;36359;41.556;-8.418;2023-03-12T11:36:42;7.82;;;2.88;;
50429;SDS011;36359;41.556;-8.418;2023-03-12T11:47:54;5.43;;;2.70;;
50429;SDS011;36359;41.556;-8.418;2023-03-12T12:06:15;5.00;;;2.13;;
50429;SDS011;36359;41.556;-8.418;2023-03-12T12:17:03;3.95;;;1.70;;
50429;SDS011;36359;41.556;-8.418;2023-03-12T12:20:42;4.25;;;1.95;;
50429;SDS011;36359;41.556;-8.418;2023-03-12T12:31:39;4.22;;;2.05;;
50429;SDS011;36359;41.556;-8.418;2023-03-12T12:35:29;6.15;;;2.28;;
50429;SDS011;36359;41.556;-8.418;2023-03-12T12:38:56;6.93;;;2.28;;
50429;SDS011;36359;41.556;-8.418;2023-03-12T12:42:29;5.63;;;3.17;;
50429;SDS011;36359;41.556;-8.418;2023-03-12T12:46:03;7.53;;;2.50;;
50429;SDS011;36359;41.556;-8.418;2023-03-12T12:53:42;5.45;;;1.90;;
50429;SDS011;36359;41.556;-8.418;2023-03-12T12:56:47;3.67;;;1.60;;
50429;SDS011;36359;41.556;-8.418;2023-03-12T13:03:46;5.85;;;2.33;;
50429;SDS011;36359;41.556;-8.418;2023-03-12T13:14:40;4.78;;;2.20;;
50429;SDS011;36359;41.556;-8.418;2023-03-12T13:18:28;4.63;;;1.95;;
50429;SDS011;36359;41.556;-8.418;2023-03-12T13:36:35;7.47;;;2.13;;
50429;SDS011;36359;41.556;-8.418;2023-03-12T13:47:59;4.88;;;1.90;;
50429;SDS011;36359;41.556;-8.418;2023-03-12T13:51:27;4.00;;;1.50;;
50429;SDS011;36359;41.556;-8.418;2023-03-12T13:55:04;4.72;;;1.90;;
50429;SDS011;36359;41.556;-8.418;2023-03-12T13:58:46;3.60;;;1.15;;
50429;SDS011;36359;41.556;-8.418;2023-03-12T14:02:47;5.85;;;2.35;;
50429;SDS011;36359;41.556;-8.418;2023-03-12T14:06:22;5.07;;;1.98;;
50429;SDS011;36359;41.556;-8.418;2023-03-12T14:10:05;5.75;;;2.10;;
50429;SDS011;36359;41.556;-8.418;2023-03-12T14:17:29;9.90;;;3.22;;
50429;SDS011;36359;41.556;-8.418;2023-03-12T14:20:58;4.20;;;1.42;;
50429;SDS011;36359;41.556;-8.418;2023-03-12T14:24:39;2.70;;;1.58;;
50429;SDS011;36359;41.556;-8.418;2023-03-12T14:28:27;5.30;;;2.15;;
50429;SDS011;36359;41.556;-8.418;2023-03-12T14:31:59;5.20;;;2.35;;
50429;SDS011;36359;41.556;-8.418;2023-03-12T14:35:28;5.75;;;2.17;;
50429;SDS011;36359;41.556;-8.418;2023-03-12T14:39:14;6.03;;;2.97;;
50429;SDS011;36359;41.556;-8.418;2023-03-12T14:42:47;3.00;;;1.50;;
50429;SDS011;36359;41.556;-8.418;2023-03-12T14:46:19;4.20;;;1.60;;
50429;SDS011;36359;41.556;-8.418;2023-03-12T14:49:44;4.78;;;1.70;;
50429;SDS011;36359;41.556;-8.418;2023-03-12T14:53:13;5.07;;;1.95;;
50429;SDS011;36359;41.556;-8.418;2023-03-12T14:56:45;5.57;;;2.40;;
50429;SDS011;36359;41.556;-8.418;2023-03-12T15:00:14;4.20;;;2.15;;
50429;SDS011;36359;41.556;-8.418;2023-03-12T15:03:46;5.22;;;2.17;;
50429;SDS011;36359;41.556;-8.418;2023-03-12T15:07:12;3.50;;;1.65;;
50429;SDS011;36359;41.556;-8.418;2023-03-12T15:10:37;3.60;;;1.73;;
50429;SDS011;36359;41.556;-8.418;2023-03-12T15:14:04;8.63;;;2.50;;
50429;SDS011;36359;41.556;-8.418;2023-03-12T15:17:32;4.57;;;1.83;;
50429;SDS011;36359;41.556;-8.418;2023-03-12T15:20:58;3.00;;;1.65;;
50429;SDS011;36359;41.556;-8.418;2023-03-12T15:24:23;3.53;;;1.40;;
50429;SDS011;36359;41.556;-8.418;2023-03-12T15:35:10;4.53;;;1.92;;
50429;SDS011;36359;41.556;-8.418;2023-03-12T15:38:42;4.65;;;1.63;;
50429;SDS011;36359;41.556;-8.418;2023-03-12T15:42:14;5.28;;;1.88;;
50429;SDS011;36359;41.556;-8.418;2023-03-12T15:45:44;5.43;;;2.00;;
50429;SDS011;36359;41.556;-8.418;2023-03-12T15:49:10;4.63;;;1.42;;
50429;SDS011;36359;41.556;-8.418;2023-03-12T15:52:57;4.78;;;1.52;;
50429;SDS011;36359;41.556;-8.418;2023-03-12T15:56:29;5.10;;;1.50;;
50429;SDS011;36359;41.556;-8.418;2023-03-12T16:03:37;5.78;;;1.85;;
50429;SDS011;36359;41.556;-8.418;2023-03-12T16:07:01;4.05;;;1.80;;
50429;SDS011;36359;41.556;-8.418;2023-03-12T16:10:27;2.20;;;1.00;;
50429;SDS011;36359;41.556;-8.418;2023-03-12T16:17:28;7.00;;;2.50;;
50429;SDS011;36359;41.556;-8.418;2023-03-12T16:20:52;4.72;;;2.10;;
50429;SDS011;36359;41.556;-8.418;2023-03-12T16:24:17;9.45;;;3.17;;
50429;SDS011;36359;41.556;-8.418;2023-03-12T16:27:45;9.02;;;4.57;;
50429;SDS011;36359;41.556;-8.418;2023-03-12T16:31:13;3.63;;;1.83;;
50429;SDS011;36359;41.556;-8.418;2023-03-12T16:34:39;3.83;;;1.45;;
50429;SDS011;36359;41.556;-8.418;2023-03-12T16:38:03;4.35;;;1.50;;
50429;SDS011;36359;41.556;-8.418;2023-03-12T16:41:28;7.78;;;2.67;;
50429;SDS011;36359;41.556;-8.418;2023-03-12T16:44:53;3.55;;;1.50;;
50429;SDS011;36359;41.556;-8.418;2023-03-12T16:48:19;3.42;;;1.70;;
50429;SDS011;36359;41.556;-8.418;2023-03-12T16:51:45;3.28;;;1.25;;
50429;SDS011;36359;41.556;-8.418;2023-03-12T16:55:13;4.72;;;1.35;;
50429;SDS011;36359;41.556;-8.418;2023-03-12T16:58:42;5.38;;;2.22;;
50429;SDS011;36359;41.556;-8.418;2023-03-12T17:02:16;4.40;;;1.92;;
50429;SDS011;36359;41.556;-8.418;2023-03-12T17:05:55;5.55;;;2.22;;
50429;SDS011;36359;41.556;-8.418;2023-03-12T17:09:20;7.25;;;1.70;;
50429;SDS011;36359;41.556;-8.418;2023-03-12T17:12:44;5.22;;;1.70;;
50429;SDS011;36359;41.556;-8.418;2023-03-12T17:16:10;8.52;;;2.58;;
50429;SDS011;36359;41.556;-8.418;2023-03-12T17:19:35;4.75;;;1.77;;
50429;SDS011;36359;41.556;-8.418;2023-03-12T17:23:01;4.38;;;1.75;;
50429;SDS011;36359;41.556;-8.418;2023-03-12T17:26:25;6.07;;;2.10;;
50429;SDS011;36359;41.556;-8.418;2023-03-12T17:29:49;4.47;;;1.77;;
50429;SDS011;36359;41.556;-8.418;2023-03-12T17:33:16;7.55;;;2.03;;
50429;SDS011;36359;41.556;-8.418;2023-03-12T17:36:41;6.93;;;2.63;;
50429;SDS011;36359;41.556;-8.418;2023-03-12T17:40:06;3.97;;;1.90;;
50429;SDS011;36359;41.556;-8.418;2023-03-12T17:43:32;5.90;;;2.53;;
50429;SDS011;36359;41.556;-8.418;2023-03-12T17:46:59;7.30;;;2.35;;
50429;SDS011;36359;41.556;-8.418;2023-03-12T17:50:23;5.13;;;1.65;;
50429;SDS011;36359;41.556;-8.418;2023-03-12T17:53:48;6.88;;;2.30;;
50429;SDS011;36359;41.556;-8.418;2023-03-12T17:57:12;4.90;;;2.13;;
50429;SDS011;36359;41.556;-8.418;2023-03-12T18:00:36;4.38;;;2.08;;
50429;SDS011;36359;41.556;-8.418;2023-03-12T18:04:00;4.47;;;1.52;;
50429;SDS011;36359;41.556;-8.418;2023-03-12T18:07:25;5.75;;;2.00;;
50429;SDS011;36359;41.556;-8.418;2023-03-12T18:10:49;11.00;;;4.65;;
50429;SDS011;36359;41.556;-8.418;2023-03-12T18:14:13;7.75;;;2.80;;
50429;SDS011;36359;41.556;-8.418;2023-03-12T18:17:39;6.35;;;3.13;;
50429;SDS011;36359;41.556;-8.418;2023-03-12T18:21:03;9.10;;;3.15;;
50429;SDS011;36359;41.556;-8.418;2023-03-12T18:24:28;3.95;;;1.75;;
50429;SDS011;36359;41.556;-8.418;2023-03-12T18:27:52;6.55;;;2.67;;
50429;SDS011;36359;41.556;-8.418;2023-03-12T18:31:16;8.23;;;3.25;;
50429;SDS011;36359;41.556;-8.418;2023-03-12T18:34:40;8.43;;;3.85;;
50429;SDS011;36359;41.556;-8.418;2023-03-12T18:38:04;6.07;;;2.28;;
50429;SDS011;36359;41.556;-8.418;2023-03-12T18:41:30;10.68;;;4.60;;
50429;SDS011;36359;41.556;-8.418;2023-03-12T18:44:55;13.20;;;7.15;;
50429;SDS011;36359;41.556;-8.418;2023-03-12T18:48:19;12.65;;;6.95;;
50429;SDS011;36359;41.556;-8.418;2023-03-12T18:51:43;11.18;;;6.20;;
50429;SDS011;36359;41.556;-8.418;2023-03-12T18:55:07;14.30;;;8.60;;
50429;SDS011;36359;41.556;-8.418;2023-03-12T18:58:32;13.73;;;7.10;;
50429;SDS011;36359;41.556;-8.418;2023-03-12T19:01:56;7.53;;;4.13;;
50429;SDS011;36359;41.556;-8.418;2023-03-12T19:05:20;7.20;;;3.10;;
50429;SDS011;36359;41.556;-8.418;2023-03-12T19:08:45;10.05;;;3.75;;
50429;SDS011;36359;41.556;-8.418;2023-03-12T19:12:10;9.40;;;3.92;;
50429;SDS011;36359;41.556;-8.418;2023-03-12T19:15:35;7.55;;;3.70;;
50429;SDS011;36359;41.556;-8.418;2023-03-12T19:19:00;7.70;;;2.85;;
50429;SDS011;36359;41.556;-8.418;2023-03-12T19:22:24;7.40;;;4.40;;
50429;SDS011;36359;41.556;-8.418;2023-03-12T19:25:48;8.70;;;4.25;;
50429;SDS011;36359;41.556;-8.418;2023-03-12T19:29:12;6.38;;;2.63;;
50429;SDS011;36359;41.556;-8.418;2023-03-12T19:32:38;4.88;;;2.50;;
50429;SDS011;36359;41.556;-8.418;2023-03-12T19:36:02;7.25;;;2.53;;
50429;SDS011;36359;41.556;-8.418;2023-03-12T19:39:26;6.63;;;2.90;;
50429;SDS011;36359;41.556;-8.418;2023-03-12T19:42:51;9.88;;;4.50;;
50429;SDS011;36359;41.556;-8.418;2023-03-12T19:46:15;10.20;;;5.40;;
50429;SDS011;36359;41.556;-8.418;2023-03-12T19:49:40;5.78;;;2.60;;
50429;SDS011;36359;41.556;-8.418;2023-03-12T19:53:05;8.93;;;4.10;;
50429;SDS011;36359;41.556;-8.418;2023-03-12T19:56:29;7.82;;;4.13;;
50429;SDS011;36359;41.556;-8.418;2023-03-12T19:59:53;11.80;;;4.80;;
50429;SDS011;36359;41.556;-8.418;2023-03-12T20:03:17;8.18;;;3.60;;
50429;SDS011;36359;41.556;-8.418;2023-03-12T20:06:41;7.53;;;3.63;;
50429;SDS011;36359;41.556;-8.418;2023-03-12T20:10:06;9.70;;;3.63;;
50429;SDS011;36359;41.556;-8.418;2023-03-12T20:13:33;9.13;;;4.25;;
50429;SDS011;36359;41.556;-8.418;2023-03-12T20:16:57;9.07;;;3.92;;
50429;SDS011;36359;41.556;-8.418;2023-03-12T20:20:22;5.45;;;3.38;;
50429;SDS011;36359;41.556;-8.418;2023-03-12T20:23:47;5.43;;;2.50;;
50429;SDS011;36359;41.556;-8.418;2023-03-12T20:27:11;6.65;;;2.50;;
50429;SDS011;36359;41.556;-8.418;2023-03-12T20:30:36;5.00;;;2.25;;
50429;SDS011;36359;41.556;-8.418;2023-03-12T20:34:00;6.15;;;2.67;;
50429;SDS011;36359;41.556;-8.418;2023-03-12T20:37:25;8.48;;;3.05;;
50429;SDS011;36359;41.556;-8.418;2023-03-12T20:40:49;11.15;;;3.72;;
50429;SDS011;36359;41.556;-8.418;2023-03-12T20:44:13;5.70;;;2.83;;
50429;SDS011;36359;41.556;-8.418;2023-03-12T20:47:37;9.35;;;3.70;;
50429;SDS011;36359;41.556;-8.418;2023-03-12T20:51:02;8.55;;;3.65;;
50429;SDS011;36359;41.556;-8.418;2023-03-12T20:54:26;7.10;;;3.60;;
50429;SDS011;36359;41.556;-8.418;2023-03-12T20:57:50;7.10;;;3.17;;
50429;SDS011;36359;41.556;-8.418;2023-03-12T21:01:14;9.52;;;4.10;;
50429;SDS011;36359;41.556;-8.418;2023-03-12T21:04:39;9.13;;;4.25;;
50429;SDS011;36359;41.556;-8.418;2023-03-12T21:08:04;8.02;;;3.55;;
50429;SDS011;36359;41.556;-8.418;2023-03-12T21:11:29;8.25;;;3.40;;
50429;SDS011;36359;41.556;-8.418;2023-03-12T21:14:53;5.53;;;3.60;;
50429;SDS011;36359;41.556;-8.418;2023-03-12T21:18:17;8.82;;;3.78;;
50429;SDS011;36359;41.556;-8.418;2023-03-12T21:21:41;10.50;;;4.50;;
50429;SDS011;36359;41.556;-8.418;2023-03-12T21:25:08;8.23;;;4.60;;
50429;SDS011;36359;41.556;-8.418;2023-03-12T21:28:33;12.30;;;4.80;;
50429;SDS011;36359;41.556;-8.418;2023-03-12T21:31:57;7.30;;;4.25;;
50429;SDS011;36359;41.556;-8.418;2023-03-12T21:35:22;7.90;;;4.22;;
50429;SDS011;36359;41.556;-8.418;2023-03-12T21:38:46;10.82;;;4.15;;
50429;SDS011;36359;41.556;-8.418;2023-03-12T21:42:11;8.05;;;3.40;;
50429;SDS011;36359;41.556;-8.418;2023-03-12T21:45:35;9.40;;;4.10;;
50429;SDS011;36359;41.556;-8.418;2023-03-12T21:48:59;8.35;;;4.15;;
50429;SDS011;36359;41.556;-8.418;2023-03-12T21:52:23;11.80;;;5.50;;
50429;SDS011;36359;41.556;-8.418;2023-03-12T21:55:54;12.88;;;4.50;;
50429;SDS011;36359;41.556;-8.418;2023-03-12T21:59:19;8.18;;;4.32;;
50429;SDS011;36359;41.556;-8.418;2023-03-12T22:02:43;7.40;;;4.35;;
50429;SDS011;36359;41.556;-8.418;2023-03-12T22:06:09;10.02;;;4.43;;
50429;SDS011;36359;41.556;-8.418;2023-03-12T22:09:33;12.27;;;5.10;;
50429;SDS011;36359;41.556;-8.418;2023-03-12T22:12:58;7.95;;;4.40;;
50429;SDS011;36359;41.556;-8.418;2023-03-12T22:16:22;9.07;;;4.55;;
50429;SDS011;36359;41.556;-8.418;2023-03-12T22:19:46;9.73;;;4.75;;
50429;SDS011;36359;41.556;-8.418;2023-03-12T22:26:41;9.27;;;5.50;;
50429;SDS011;36359;41.556;-8.418;2023-03-12T22:30:06;9.68;;;5.20;;